Terminal Aerodrome Forecast
Issued by NWS Pueblo, CO

Home | Current Version | Previous Version | Text Only | Print | Product List | Glossary On
Versions: 1 2 3 4 5 6 7 8 9 10 11 12 13 14 15 16 17 18 19 20 21 22 23 24 25 26 27 28 29 30 31 32 33 34 35 36 37 38 39
000
FTUS45 KPUB 221201 AAA
TAFCOS
TAF AMD
KCOS 221201Z 2212/2312 14007KT P6SM VCSH BKN020 OVC040
     FM221600 17010KT P6SM SCT030 BKN090
     FM222000 19014KT P6SM VCTS SCT060CB BKN120
      TEMPO 2221/2224 VRB25G35KT -TSRA BKN040CB
     FM230200 02007KT P6SM SCT100 SCT200
     FM230600 34008KT P6SM FEW200=

USA.gov is the U.S. government's official web portal to all federal, state and local government web resources and services.